Time;durP1;ratioP1;P1;durP2;ratioP2;P2;SDS_P1;SDS_P2;PMS_P1;PMS_P2;Temp;Humidity;BMP_temperature;BMP_pressure;BME280_temperature;BME280_humidity;BME280_pressure;Samples;Min_cycle;Max_cycle;Signal;HPM_P1;HPM_P2
2023/01/31 00:01:06;;;;;;;10.57;2.50;;;3.90;99.90;;;;;;5112314;28;20240;-73
2023/01/31 00:03:35;;;;;;;10.17;2.80;;;4.00;99.90;;;;;;5111989;28;20252;-73
2023/01/31 00:06:13;;;;;;;10.83;2.83;;;3.90;99.90;;;;;;5115815;27;20200;-73
2023/01/31 00:08:40;;;;;;;7.13;2.43;;;3.90;99.90;;;;;;5129857;27;20319;-73
2023/01/31 00:11:07;;;;;;;7.63;2.40;;;3.90;99.90;;;;;;5112590;27;20301;-73
2023/01/31 00:13:34;;;;;;;11.80;2.83;;;3.90;99.90;;;;;;5111882;28;20639;-73
2023/01/31 00:16:01;;;;;;;12.17;2.70;;;3.90;99.90;;;;;;5116097;27;20281;-72
2023/01/31 00:18:28;;;;;;;7.07;2.43;;;3.90;99.90;;;;;;5147240;27;20298;-72
2023/01/31 00:20:57;;;;;;;11.17;2.10;;;3.90;99.90;;;;;;5131571;27;20655;-72
2023/01/31 00:23:24;;;;;;;9.37;2.80;;;3.90;99.90;;;;;;5132193;27;20715;-71
2023/01/31 00:25:50;;;;;;;12.57;2.40;;;3.90;99.90;;;;;;5132151;27;20233;-72
2023/01/31 00:28:17;;;;;;;10.73;2.53;;;3.90;99.90;;;;;;5132139;27;20237;-72
2023/01/31 00:30:44;;;;;;;6.97;2.00;;;3.90;99.90;;;;;;5131971;27;20333;-73
2023/01/31 00:33:11;;;;;;;8.27;2.30;;;3.90;99.90;;;;;;5119302;27;20665;-73
2023/01/31 00:35:40;;;;;;;14.00;2.77;;;3.90;99.90;;;;;;5132131;27;20246;-73
2023/01/31 00:38:09;;;;;;;9.03;2.20;;;3.90;99.90;;;;;;5131874;27;20672;-73
2023/01/31 00:40:36;;;;;;;8.73;2.40;;;3.90;99.90;;;;;;5122134;27;20251;-73
2023/01/31 00:43:03;;;;;;;5.87;1.93;;;3.90;99.90;;;;;;5111663;28;20221;-73
2023/01/31 00:45:30;;;;;;;6.53;2.50;;;3.90;99.90;;;;;;5118070;27;20274;-73
2023/01/31 00:47:57;;;;;;;8.27;1.93;;;3.90;99.90;;;;;;5130699;27;20316;-73
2023/01/31 00:50:24;;;;;;;9.23;2.30;;;3.90;99.90;;;;;;5112089;27;20233;-73
2023/01/31 00:52:51;;;;;;;5.13;2.23;;;3.90;99.90;;;;;;5127773;27;20692;-73
2023/01/31 00:55:19;;;;;;;12.10;2.67;;;3.90;99.90;;;;;;5131998;27;20688;-72
2023/01/31 00:57:46;;;;;;;9.73;2.53;;;4.00;99.90;;;;;;5131206;27;20791;-72
2023/01/31 01:00:14;;;;;;;10.87;2.80;;;4.00;99.90;;;;;;5132139;27;20643;-72
2023/01/31 01:02:41;;;;;;;8.17;2.10;;;4.00;99.90;;;;;;5131372;27;20214;-72
2023/01/31 01:05:08;;;;;;;8.30;2.17;;;4.00;99.90;;;;;;5125854;27;20206;-72
2023/01/31 01:07:36;;;;;;;7.83;2.27;;;4.00;99.90;;;;;;5119739;27;20670;-73
2023/01/31 01:10:03;;;;;;;10.43;2.30;;;4.00;99.90;;;;;;5121691;27;20206;-72
2023/01/31 01:12:31;;;;;;;10.17;2.23;;;4.00;99.90;;;;;;5131334;27;20247;-72
2023/01/31 01:14:58;;;;;;;9.23;2.30;;;4.10;99.90;;;;;;5131550;27;20281;-72
2023/01/31 01:17:25;;;;;;;8.13;2.20;;;4.00;99.90;;;;;;5145133;27;20295;-72
2023/01/31 01:19:52;;;;;;;6.47;2.03;;;4.10;99.90;;;;;;5117037;27;20234;-73
2023/01/31 01:22:18;;;;;;;6.40;2.10;;;4.10;99.90;;;;;;5118268;27;20297;-73
2023/01/31 01:24:46;;;;;;;7.77;2.00;;;4.10;99.90;;;;;;5131248;27;20206;-72
2023/01/31 01:27:13;;;;;;;6.27;1.87;;;4.10;99.90;;;;;;5131221;27;20315;-72
2023/01/31 01:29:41;;;;;;;6.93;2.03;;;4.10;99.90;;;;;;5123137;27;20273;-73
2023/01/31 01:32:08;;;;;;;7.27;2.10;;;4.10;99.90;;;;;;5110431;28;21100;-74
2023/01/31 01:34:36;;;;;;;5.83;1.97;;;4.10;99.90;;;;;;5110725;28;20617;-74
2023/01/31 01:37:08;;;;;;;10.17;2.30;;;4.10;99.90;;;;;;5110618;28;20198;-74
2023/01/31 01:39:35;;;;;;;6.73;1.90;;;4.10;99.90;;;;;;5110583;28;20191;-74
2023/01/31 01:42:02;;;;;;;8.27;2.40;;;4.00;99.90;;;;;;5110571;28;20285;-74
2023/01/31 01:44:53;;;;;;;7.30;2.10;;;4.00;99.90;;;;;;5110473;28;20195;-74
2023/01/31 01:47:29;;;;;;;6.00;1.93;;;4.00;99.90;;;;;;5110578;28;20253;-72
2023/01/31 01:50:00;;;;;;;7.30;2.17;;;4.10;99.90;;;;;;5110344;28;20318;-72
2023/01/31 01:52:32;;;;;;;7.93;2.13;;;4.10;99.90;;;;;;5119608;27;20278;-73
2023/01/31 01:55:03;;;;;;;5.90;1.93;;;4.10;99.90;;;;;;5130713;27;20217;-72
2023/01/31 01:57:35;;;;;;;8.37;2.23;;;4.10;99.90;;;;;;5130129;27;20325;-72
2023/01/31 02:00:13;;;;;;;10.67;2.03;;;4.10;99.90;;;;;;5130383;27;20281;-72
2023/01/31 02:02:40;;;;;;;8.87;2.27;;;4.00;99.90;;;;;;5125138;27;20212;-72
2023/01/31 02:05:09;;;;;;;7.17;1.93;;;4.00;99.90;;;;;;5130341;27;20205;-72
2023/01/31 02:07:36;;;;;;;5.37;1.90;;;4.00;99.90;;;;;;5130126;27;20221;-72
2023/01/31 02:10:11;;;;;;;10.20;2.00;;;4.00;99.90;;;;;;5123534;27;20403;-73
2023/01/31 02:12:39;;;;;;;7.90;2.17;;;4.00;99.90;;;;;;5116549;27;20201;-73
2023/01/31 02:15:09;;;;;;;4.93;2.20;;;4.00;99.90;;;;;;5111099;27;20297;-73
2023/01/31 02:17:36;;;;;;;8.03;2.00;;;3.90;99.90;;;;;;5109505;28;20277;-71
2023/01/31 02:20:17;;;;;;;5.47;2.00;;;4.00;99.90;;;;;;5109270;28;20827;-71
2023/01/31 02:22:54;;;;;;;8.93;2.10;;;3.90;99.90;;;;;;5131897;27;20674;-71
2023/01/31 02:25:53;;;;;;;8.50;2.03;;;3.80;99.90;;;;;;5116265;27;20272;-71
2023/01/31 02:28:51;;;;;;;9.03;2.13;;;3.80;99.90;;;;;;5150218;27;20268;-72
2023/01/31 02:31:39;;;;;;;6.80;2.07;;;3.80;99.90;;;;;;5150424;27;20200;-73
2023/01/31 02:34:14;;;;;;;6.90;1.80;;;3.80;99.90;;;;;;5150835;27;20199;-74
2023/01/31 02:36:53;;;;;;;6.47;2.10;;;3.80;99.90;;;;;;5139216;27;20292;-73
2023/01/31 02:39:31;;;;;;;7.87;2.27;;;3.80;99.90;;;;;;5129775;27;20782;-73
2023/01/31 02:42:10;;;;;;;7.77;2.70;;;3.70;99.90;;;;;;5129920;27;20194;-74
2023/01/31 02:45:03;;;;;;;6.00;1.80;;;3.70;99.90;;;;;;5129952;27;20292;-74
2023/01/31 02:47:50;;;;;;;8.10;2.07;;;3.70;99.90;;;;;;5142573;27;20215;-74
2023/01/31 02:50:26;;;;;;;7.07;2.13;;;3.70;99.90;;;;;;5108941;28;20221;-75
2023/01/31 02:52:59;;;;;;;3.67;1.57;;;3.60;99.90;;;;;;5109141;28;20281;-75
2023/01/31 02:58:19;;;;;;;4.53;1.63;;;3.60;99.90;;;;;;5129146;27;20240;-72
2023/01/31 03:00:47;;;;;;;7.53;1.80;;;3.50;99.90;;;;;;5111350;27;20605;-73
2023/01/31 03:03:21;;;;;;;9.17;2.03;;;3.50;99.90;;;;;;5125755;27;20209;-73
2023/01/31 03:06:27;;;;;;;7.43;1.80;;;3.50;99.90;;;;;;5129583;27;20351;-73
2023/01/31 03:09:01;;;;;;;5.83;1.77;;;3.50;99.90;;;;;;5121859;27;20662;-73
2023/01/31 03:11:36;;;;;;;5.97;2.10;;;3.50;99.90;;;;;;5129201;27;20186;-73
2023/01/31 03:14:15;;;;;;;9.40;1.97;;;3.50;99.90;;;;;;5128871;27;20545;-72
2023/01/31 03:19:45;;;;;;;6.70;2.20;;;3.40;99.90;;;;;;5110369;27;20225;-72
2023/01/31 03:22:16;;;;;;;4.70;1.80;;;3.40;99.90;;;;;;5128837;27;20253;-72
2023/01/31 03:24:50;;;;;;;8.83;1.90;;;3.40;99.90;;;;;;5128763;27;20562;-72
2023/01/31 03:27:17;;;;;;;4.87;2.20;;;3.40;99.90;;;;;;5121827;27;20185;-72
2023/01/31 03:29:45;;;;;;;4.23;1.90;;;3.40;99.90;;;;;;5111501;27;20316;-72
2023/01/31 03:32:18;;;;;;;5.20;1.53;;;3.40;99.90;;;;;;5126801;27;20214;-72
2023/01/31 03:34:45;;;;;;;5.37;1.67;;;3.40;99.90;;;;;;5126419;28;20217;-72
2023/01/31 03:37:20;;;;;;;5.03;2.10;;;3.40;99.90;;;;;;5118351;28;20720;-72
2023/01/31 03:39:57;;;;;;;6.90;1.83;;;3.30;99.90;;;;;;5120826;28;20197;-72
2023/01/31 03:42:32;;;;;;;6.10;1.83;;;3.30;99.90;;;;;;5126129;27;20197;-72
2023/01/31 03:45:06;;;;;;;8.73;2.20;;;3.30;99.90;;;;;;5127167;28;20189;-72
2023/01/31 03:47:37;;;;;;;8.13;1.90;;;3.30;99.90;;;;;;5136861;27;20592;-71
2023/01/31 03:50:09;;;;;;;8.37;1.90;;;3.30;99.90;;;;;;5107999;28;20240;-72
2023/01/31 03:52:41;;;;;;;9.70;1.90;;;3.30;99.90;;;;;;5105841;28;20230;-72
2023/01/31 03:55:16;;;;;;;5.83;1.87;;;3.20;99.90;;;;;;5125187;27;20209;-71
2023/01/31 03:57:46;;;;;;;6.93;2.20;;;3.20;99.90;;;;;;5125320;28;20307;-72
2023/01/31 04:00:17;;;;;;;10.47;2.47;;;3.20;99.90;;;;;;5114526;28;20252;-71
2023/01/31 04:02:43;;;;;;;7.50;2.23;;;3.20;99.90;;;;;;5115514;28;20693;-71
2023/01/31 04:05:13;;;;;;;7.90;2.10;;;3.20;99.90;;;;;;5120809;28;20260;-71
2023/01/31 04:07:40;;;;;;;5.57;1.87;;;3.20;99.90;;;;;;5126591;28;20300;-71
2023/01/31 04:10:13;;;;;;;8.70;1.70;;;3.20;99.90;;;;;;5127508;28;20205;-71
2023/01/31 04:12:40;;;;;;;4.93;1.90;;;3.20;99.90;;;;;;5128132;28;20293;-72
2023/01/31 04:15:09;;;;;;;5.23;1.83;;;3.20;99.90;;;;;;5128107;28;20205;-71
2023/01/31 04:17:36;;;;;;;6.43;2.10;;;3.20;99.90;;;;;;5127320;27;20296;-71
2023/01/31 04:20:04;;;;;;;7.70;2.27;;;3.20;99.90;;;;;;5109365;28;20297;-71
2023/01/31 04:22:31;;;;;;;5.77;1.90;;;3.20;99.90;;;;;;5116467;28;20212;-71
2023/01/31 04:24:58;;;;;;;6.00;1.87;;;3.10;99.90;;;;;;5127800;28;20208;-71
2023/01/31 04:27:26;;;;;;;5.47;1.70;;;3.10;99.90;;;;;;5127945;28;20316;-71
2023/01/31 04:29:53;;;;;;;8.77;2.53;;;3.10;99.90;;;;;;5128321;28;20422;-72
2023/01/31 04:32:20;;;;;;;9.33;1.70;;;3.10;99.90;;;;;;5127751;28;20296;-71
2023/01/31 04:34:47;;;;;;;6.40;2.00;;;3.10;99.90;;;;;;5127926;28;20682;-71
2023/01/31 04:37:14;;;;;;;6.23;2.00;;;3.10;99.90;;;;;;5127744;28;20202;-71
2023/01/31 04:39:41;;;;;;;6.90;2.10;;;3.10;99.90;;;;;;5130822;27;20294;-72
2023/01/31 04:42:08;;;;;;;5.10;2.00;;;3.10;99.90;;;;;;5131852;27;20324;-71
2023/01/31 04:44:36;;;;;;;4.53;1.60;;;3.00;99.90;;;;;;5131421;27;20808;-71
2023/01/31 04:47:03;;;;;;;4.37;1.80;;;3.10;99.90;;;;;;5131648;27;20292;-71
2023/01/31 04:49:30;;;;;;;7.03;2.70;;;3.10;99.90;;;;;;5122137;27;20667;-71
2023/01/31 04:51:57;;;;;;;6.63;1.77;;;3.10;99.90;;;;;;5125238;27;20207;-71
2023/01/31 04:54:24;;;;;;;8.63;2.03;;;3.10;99.90;;;;;;5116934;27;20653;-71
2023/01/31 04:56:50;;;;;;;6.27;1.90;;;3.20;99.90;;;;;;5116788;27;20657;-71
2023/01/31 04:59:17;;;;;;;10.00;2.03;;;3.20;99.90;;;;;;5110418;28;20349;-71
2023/01/31 05:01:46;;;;;;;3.80;2.07;;;3.30;99.90;;;;;;5110839;28;20655;-71
2023/01/31 05:04:12;;;;;;;8.83;1.73;;;3.30;99.90;;;;;;5110426;27;20292;-71
2023/01/31 05:06:39;;;;;;;7.60;2.10;;;3.30;99.90;;;;;;5110624;28;20449;-71
2023/01/31 05:09:06;;;;;;;8.57;2.00;;;3.30;99.90;;;;;;5110611;28;20799;-71
2023/01/31 05:11:33;;;;;;;7.93;2.10;;;3.30;99.90;;;;;;5110192;28;20297;-71
2023/01/31 05:14:00;;;;;;;5.67;1.87;;;3.30;99.90;;;;;;5110722;28;20248;-71
2023/01/31 05:16:27;;;;;;;8.70;2.33;;;3.30;99.90;;;;;;5121781;27;20209;-71
2023/01/31 05:18:56;;;;;;;7.80;2.50;;;3.30;99.90;;;;;;5142309;27;20296;-71
2023/01/31 05:21:23;;;;;;;10.93;2.63;;;3.30;99.90;;;;;;5130893;27;20312;-72
2023/01/31 05:23:49;;;;;;;7.03;2.47;;;3.40;99.90;;;;;;5110643;28;20525;-71
2023/01/31 05:26:16;;;;;;;7.50;2.30;;;3.40;99.90;;;;;;5110383;28;20206;-71
2023/01/31 05:28:43;;;;;;;7.60;2.10;;;3.40;99.90;;;;;;5109879;28;20332;-72
2023/01/31 05:31:12;;;;;;;6.23;2.40;;;3.50;99.90;;;;;;5110073;28;20739;-72
2023/01/31 05:33:38;;;;;;;7.63;1.80;;;3.40;99.90;;;;;;5109774;28;20205;-71
2023/01/31 05:36:08;;;;;;;7.37;2.60;;;3.50;99.90;;;;;;5110135;28;20299;-72
2023/01/31 05:38:35;;;;;;;9.60;2.63;;;3.50;99.90;;;;;;5110060;28;20241;-71
2023/01/31 05:41:01;;;;;;;6.83;1.63;;;3.60;99.90;;;;;;5110140;28;20648;-72
2023/01/31 05:43:28;;;;;;;8.60;2.60;;;3.60;99.90;;;;;;5109837;28;20202;-71
2023/01/31 05:45:55;;;;;;;5.50;1.87;;;3.60;99.90;;;;;;5111845;27;20568;-72
2023/01/31 05:48:22;;;;;;;6.53;1.93;;;3.60;99.90;;;;;;5122900;27;20207;-71
2023/01/31 05:50:49;;;;;;;5.70;2.03;;;3.60;99.90;;;;;;5109086;27;20293;-71
2023/01/31 05:53:18;;;;;;;6.73;2.10;;;3.60;99.90;;;;;;5128108;27;20216;-71
2023/01/31 05:55:45;;;;;;;3.97;1.87;;;3.60;99.90;;;;;;5124867;27;20790;-71
2023/01/31 05:58:12;;;;;;;10.97;2.60;;;3.60;99.90;;;;;;5109485;28;20773;-71
2023/01/31 06:00:39;;;;;;;8.60;2.23;;;3.70;99.90;;;;;;5109485;28;20289;-71
2023/01/31 06:03:06;;;;;;;6.03;2.10;;;3.70;99.90;;;;;;5123081;27;20727;-72
2023/01/31 06:05:33;;;;;;;6.67;1.83;;;3.70;99.90;;;;;;5129793;27;20284;-71
2023/01/31 06:08:00;;;;;;;10.83;2.20;;;3.70;99.90;;;;;;5130175;27;20205;-71
2023/01/31 06:10:28;;;;;;;8.07;2.20;;;3.70;99.90;;;;;;5130121;27;20343;-72
2023/01/31 06:12:55;;;;;;;10.30;2.37;;;3.70;99.90;;;;;;5129569;27;20695;-72
2023/01/31 06:15:22;;;;;;;7.83;2.43;;;3.70;99.90;;;;;;5130091;27;20269;-72
2023/01/31 06:17:49;;;;;;;11.67;2.83;;;3.70;99.90;;;;;;5129516;27;20254;-71
2023/01/31 06:20:16;;;;;;;7.03;2.00;;;3.70;99.90;;;;;;5129890;27;20236;-71
2023/01/31 06:22:43;;;;;;;7.67;1.90;;;3.70;99.90;;;;;;5129480;27;20656;-71
2023/01/31 06:25:10;;;;;;;6.77;2.03;;;3.70;99.90;;;;;;5129632;27;20205;-71
2023/01/31 06:27:38;;;;;;;10.20;2.10;;;3.70;99.90;;;;;;5129271;27;20308;-71
2023/01/31 06:30:06;;;;;;;7.73;2.10;;;3.70;99.90;;;;;;5129453;27;20240;-71
2023/01/31 06:32:33;;;;;;;10.37;2.60;;;3.70;99.90;;;;;;5128640;27;20237;-71
2023/01/31 06:35:00;;;;;;;8.20;1.97;;;3.80;99.90;;;;;;5129549;27;20296;-71
2023/01/31 06:37:27;;;;;;;7.03;2.23;;;3.70;99.90;;;;;;5129508;27;20309;-71
2023/01/31 06:39:54;;;;;;;5.57;2.30;;;3.80;99.90;;;;;;5129445;27;20301;-71
2023/01/31 06:42:21;;;;;;;6.23;2.10;;;3.70;99.90;;;;;;5127297;27;20212;-72
2023/01/31 06:44:49;;;;;;;8.37;2.10;;;3.80;99.90;;;;;;5108380;28;20214;-71
2023/01/31 06:47:16;;;;;;;6.87;1.97;;;3.80;99.90;;;;;;5124884;27;20644;-71
2023/01/31 06:49:43;;;;;;;7.13;2.00;;;3.80;99.90;;;;;;5112682;27;20324;-71
2023/01/31 06:52:10;;;;;;;7.40;2.07;;;3.80;99.90;;;;;;5108625;28;20202;-72
2023/01/31 06:54:36;;;;;;;7.87;2.30;;;3.80;99.90;;;;;;5108351;28;20666;-71
2023/01/31 06:57:03;;;;;;;9.03;1.60;;;3.80;99.90;;;;;;5108218;28;20648;-72
2023/01/31 06:59:30;;;;;;;6.07;2.20;;;3.80;99.90;;;;;;5108303;28;20435;-72
2023/01/31 07:01:59;;;;;;;8.60;2.10;;;3.80;99.90;;;;;;5108557;28;20251;-72
2023/01/31 07:04:26;;;;;;;12.00;2.47;;;3.80;99.90;;;;;;5108130;28;20198;-71
2023/01/31 07:06:53;;;;;;;4.87;2.23;;;3.80;99.90;;;;;;5113565;27;20287;-71
2023/01/31 07:09:20;;;;;;;6.13;1.90;;;3.70;99.90;;;;;;5128642;27;20703;-72
2023/01/31 07:11:46;;;;;;;5.93;2.10;;;3.70;99.90;;;;;;5128659;27;20210;-72
2023/01/31 07:14:13;;;;;;;7.47;2.00;;;3.70;99.90;;;;;;5128799;27;20507;-71
2023/01/31 07:16:40;;;;;;;10.87;2.00;;;3.70;99.90;;;;;;5136236;27;20300;-71
2023/01/31 07:19:09;;;;;;;10.13;2.53;;;3.70;99.90;;;;;;5138329;27;20315;-70
2023/01/31 07:21:36;;;;;;;5.43;1.77;;;3.70;99.90;;;;;;5128432;27;20292;-70
2023/01/31 07:24:03;;;;;;;10.30;2.57;;;3.70;99.90;;;;;;5129066;27;20241;-70
2023/01/31 07:26:30;;;;;;;4.33;1.57;;;3.70;99.90;;;;;;5128696;27;20238;-71
2023/01/31 07:28:57;;;;;;;8.20;2.53;;;3.70;99.90;;;;;;5128179;27;20617;-71
2023/01/31 07:31:24;;;;;;;4.23;2.00;;;3.70;99.90;;;;;;5128195;27;20766;-71
2023/01/31 07:33:51;;;;;;;8.33;2.43;;;3.70;99.90;;;;;;5128464;27;20205;-71
2023/01/31 07:36:25;;;;;;;5.60;2.03;;;3.80;99.90;;;;;;5128373;27;20228;-71
2023/01/31 07:38:54;;;;;;;7.50;2.40;;;3.70;99.90;;;;;;5124325;27;20198;-71
2023/01/31 07:41:22;;;;;;;5.70;1.90;;;3.80;99.90;;;;;;5107853;28;20224;-71
2023/01/31 07:43:48;;;;;;;8.60;2.10;;;3.80;99.90;;;;;;5117785;28;20281;-71
2023/01/31 07:46:15;;;;;;;5.33;1.83;;;3.80;99.90;;;;;;5108009;28;20209;-71
2023/01/31 07:48:42;;;;;;;8.53;2.47;;;3.80;99.90;;;;;;5107415;28;20609;-71
2023/01/31 07:51:10;;;;;;;8.93;2.73;;;3.80;99.90;;;;;;5107772;28;20606;-71
2023/01/31 07:53:41;;;;;;;9.40;2.47;;;3.80;99.90;;;;;;5107975;28;20289;-71
2023/01/31 07:56:10;;;;;;;8.60;1.90;;;3.90;99.90;;;;;;5107721;28;20289;-71
2023/01/31 07:58:37;;;;;;;6.23;2.53;;;3.90;99.90;;;;;;5107819;28;20263;-71
2023/01/31 08:03:49;;;;;;;7.90;2.33;;;3.90;99.90;;;;;;5118638;27;20339;-71
2023/01/31 08:06:16;;;;;;;8.30;2.00;;;3.90;99.90;;;;;;5128142;28;20647;-71
2023/01/31 08:08:45;;;;;;;8.53;2.20;;;4.00;99.90;;;;;;5128461;28;20298;-71
2023/01/31 08:11:12;;;;;;;5.57;1.90;;;4.00;99.90;;;;;;5128454;28;20264;-71
2023/01/31 08:13:39;;;;;;;6.97;1.80;;;4.00;99.90;;;;;;5129696;27;20284;-71
2023/01/31 08:16:09;;;;;;;7.37;2.23;;;4.00;99.90;;;;;;5132296;27;20296;-71
2023/01/31 08:18:39;;;;;;;4.97;2.33;;;3.90;99.90;;;;;;5125511;27;20212;-71
2023/01/31 08:21:07;;;;;;;5.00;1.57;;;4.00;99.90;;;;;;5111729;28;20582;-71
2023/01/31 08:23:36;;;;;;;4.93;1.80;;;4.00;99.90;;;;;;5129814;27;20296;-71
2023/01/31 08:26:07;;;;;;;8.50;2.07;;;4.00;99.90;;;;;;5131764;27;20209;-71
2023/01/31 08:28:34;;;;;;;9.50;2.23;;;4.00;99.90;;;;;;5132200;27;20236;-71
2023/01/31 08:31:01;;;;;;;10.27;2.17;;;4.00;99.90;;;;;;5131825;27;20225;-71
2023/01/31 08:33:28;;;;;;;8.03;2.20;;;4.00;99.90;;;;;;5131483;27;20204;-71
2023/01/31 08:35:55;;;;;;;9.17;2.37;;;4.00;99.90;;;;;;5120485;27;20212;-71
2023/01/31 08:38:22;;;;;;;8.00;2.20;;;4.00;99.90;;;;;;5129151;27;20245;-71
2023/01/31 08:40:49;;;;;;;8.03;2.17;;;4.00;99.90;;;;;;5121676;27;20293;-71
2023/01/31 08:43:18;;;;;;;6.77;2.27;;;4.00;99.90;;;;;;5131617;27;20298;-71
2023/01/31 08:45:45;;;;;;;10.40;2.60;;;4.10;99.90;;;;;;5131095;27;20299;-71
2023/01/31 08:48:13;;;;;;;7.33;2.03;;;4.10;99.90;;;;;;5151814;27;20735;-71
2023/01/31 08:50:40;;;;;;;7.10;2.00;;;4.10;99.90;;;;;;5151889;27;20228;-71
2023/01/31 08:53:07;;;;;;;15.83;2.40;;;4.10;99.90;;;;;;5152015;27;20214;-71
2023/01/31 08:55:36;;;;;;;9.03;2.47;;;4.10;99.90;;;;;;5147947;27;20284;-71
2023/01/31 08:58:03;;;;;;;7.93;2.13;;;4.10;99.90;;;;;;5131189;27;20272;-71
2023/01/31 09:00:32;;;;;;;8.80;2.43;;;4.20;99.90;;;;;;5116261;27;20212;-71
2023/01/31 09:03:00;;;;;;;7.70;2.50;;;4.20;99.90;;;;;;5110185;28;20431;-71
2023/01/31 09:05:29;;;;;;;7.63;2.37;;;4.20;99.90;;;;;;5110189;28;20202;-71
2023/01/31 09:07:56;;;;;;;9.43;2.30;;;4.20;99.90;;;;;;5127966;27;20233;-71
2023/01/31 09:10:23;;;;;;;10.83;2.70;;;4.30;99.90;;;;;;5130818;27;20229;-71
2023/01/31 09:12:50;;;;;;;7.53;2.43;;;4.30;99.90;;;;;;5131362;27;20205;-71
2023/01/31 09:15:17;;;;;;;6.10;2.30;;;4.30;99.90;;;;;;5130818;27;20748;-71
2023/01/31 09:17:46;;;;;;;11.80;2.23;;;4.30;99.90;;;;;;5130665;27;20733;-71
2023/01/31 09:20:13;;;;;;;7.90;2.20;;;4.40;99.90;;;;;;5130959;27;20299;-72
2023/01/31 09:22:39;;;;;;;6.93;2.30;;;4.40;99.90;;;;;;5119916;27;20569;-72
2023/01/31 09:25:08;;;;;;;9.30;2.57;;;4.40;99.90;;;;;;5109176;28;20277;-71
2023/01/31 09:27:35;;;;;;;7.03;2.70;;;4.50;99.90;;;;;;5109906;27;20322;-71
2023/01/31 09:30:03;;;;;;;12.17;2.57;;;4.40;99.90;;;;;;5110303;28;20279;-71
2023/01/31 09:32:30;;;;;;;8.20;2.33;;;4.50;99.90;;;;;;5115874;27;20228;-71
2023/01/31 09:34:59;;;;;;;7.07;2.53;;;4.50;99.90;;;;;;5110356;28;20210;-71
2023/01/31 09:37:28;;;;;;;8.83;2.97;;;4.50;99.90;;;;;;5120892;27;20254;-71
2023/01/31 09:39:55;;;;;;;8.67;2.60;;;4.50;99.90;;;;;;5130532;27;20550;-71
2023/01/31 09:42:27;;;;;;;11.13;2.53;;;4.50;99.90;;;;;;5130625;27;20262;-71
2023/01/31 09:45:00;;;;;;;11.93;3.07;;;4.60;99.90;;;;;;5130503;27;20225;-71
2023/01/31 09:47:32;;;;;;;8.40;2.33;;;4.60;99.90;;;;;;5144468;27;20283;-72
2023/01/31 09:50:04;;;;;;;9.07;2.57;;;4.60;99.90;;;;;;5132769;27;20293;-72
2023/01/31 09:52:32;;;;;;;6.37;2.40;;;4.70;99.90;;;;;;5130411;27;20611;-71
2023/01/31 09:55:01;;;;;;;15.90;2.70;;;4.70;99.90;;;;;;5130502;27;20236;-71
2023/01/31 09:57:40;;;;;;;6.87;2.43;;;4.70;99.90;;;;;;5128861;27;20473;-72
2023/01/31 10:00:22;;;;;;;12.33;2.40;;;4.70;99.90;;;;;;5130185;27;20304;-72
2023/01/31 10:03:17;;;;;;;11.77;2.30;;;4.70;99.90;;;;;;5130023;27;20205;-71
2023/01/31 10:05:52;;;;;;;6.53;2.30;;;4.80;99.90;;;;;;5101820;27;20205;-71
2023/01/31 10:08:33;;;;;;;4.37;2.43;;;4.80;99.90;;;;;;5129822;27;20232;-71
2023/01/31 10:11:03;;;;;;;9.80;2.70;;;4.90;99.90;;;;;;5129889;27;20261;-71
2023/01/31 10:13:35;;;;;;;6.13;2.00;;;4.90;99.90;;;;;;5129812;27;20815;-71
2023/01/31 10:16:14;;;;;;;9.00;2.20;;;4.90;99.90;;;;;;5129540;27;20196;-72
2023/01/31 10:18:45;;;;;;;13.07;2.77;;;4.90;99.90;;;;;;5129438;27;20272;-71
2023/01/31 10:21:18;;;;;;;8.97;2.20;;;4.90;99.90;;;;;;5129793;27;20194;-72
2023/01/31 10:23:51;;;;;;;7.97;2.50;;;4.90;99.90;;;;;;5129581;27;20284;-71
2023/01/31 10:26:23;;;;;;;6.40;2.17;;;4.90;99.90;;;;;;5129692;27;20200;-72
2023/01/31 10:28:57;;;;;;;8.10;1.87;;;4.90;99.90;;;;;;5108961;27;20504;-71
2023/01/31 10:31:32;;;;;;;7.30;2.20;;;4.80;99.90;;;;;;5110121;27;20222;-72
2023/01/31 10:34:04;;;;;;;9.20;2.20;;;4.80;99.90;;;;;;5129157;27;20212;-71
2023/01/31 10:36:38;;;;;;;9.80;2.47;;;4.80;99.90;;;;;;5129129;27;20536;-72
2023/01/31 10:39:10;;;;;;;7.57;1.90;;;4.90;99.90;;;;;;5129158;27;20231;-72
2023/01/31 10:41:47;;;;;;;10.87;2.40;;;4.90;99.90;;;;;;5129047;27;20276;-72
2023/01/31 10:44:23;;;;;;;7.23;2.40;;;5.00;99.90;;;;;;5128765;27;20282;-71
2023/01/31 10:46:52;;;;;;;11.50;2.57;;;5.00;99.90;;;;;;5129181;27;20584;-72
2023/01/31 10:49:24;;;;;;;7.97;2.30;;;5.00;99.90;;;;;;5128913;27;20660;-71
2023/01/31 10:52:07;;;;;;;9.50;2.10;;;5.10;99.90;;;;;;5129059;27;20213;-72
2023/01/31 10:54:47;;;;;;;9.70;2.80;;;5.10;99.90;;;;;;5129149;27;20238;-71
2023/01/31 10:57:16;;;;;;;7.20;2.70;;;5.10;99.90;;;;;;5128472;27;20250;-72
2023/01/31 10:59:46;;;;;;;7.33;2.13;;;5.10;99.90;;;;;;5128215;27;20485;-72
2023/01/31 11:02:19;;;;;;;7.77;2.50;;;5.10;99.90;;;;;;5128714;27;20300;-71
2023/01/31 11:04:46;;;;;;;4.63;2.17;;;5.20;99.90;;;;;;5128570;27;20193;-72
2023/01/31 11:07:15;;;;;;;5.60;2.13;;;5.20;99.90;;;;;;5128613;27;20292;-71
2023/01/31 11:09:47;;;;;;;9.70;2.87;;;5.20;99.90;;;;;;5128594;27;20258;-72
2023/01/31 11:12:14;;;;;;;5.87;2.57;;;5.20;99.90;;;;;;5128341;27;20680;-71
2023/01/31 11:14:41;;;;;;;9.17;2.53;;;5.10;99.90;;;;;;5128337;27;20735;-71
2023/01/31 11:17:15;;;;;;;12.07;2.90;;;5.20;99.90;;;;;;5128319;27;20667;-71
2023/01/31 11:19:46;;;;;;;6.67;2.70;;;5.10;99.90;;;;;;5112667;27;20224;-71
2023/01/31 11:22:22;;;;;;;6.77;2.53;;;5.10;99.90;;;;;;5115233;27;20205;-71
2023/01/31 11:24:50;;;;;;;6.53;2.53;;;5.10;99.90;;;;;;5116073;27;20614;-71
2023/01/31 11:27:25;;;;;;;8.40;2.87;;;5.10;99.90;;;;;;5126736;27;20769;-72
2023/01/31 11:29:54;;;;;;;8.20;3.03;;;5.10;99.90;;;;;;5118047;27;20208;-72
2023/01/31 11:32:24;;;;;;;7.73;2.93;;;5.10;99.90;;;;;;5107445;28;20279;-71
2023/01/31 11:34:59;;;;;;;11.53;2.90;;;5.20;99.90;;;;;;5107640;28;20198;-72
2023/01/31 11:37:28;;;;;;;8.90;3.13;;;5.20;99.90;;;;;;5107478;28;20257;-72
2023/01/31 11:39:57;;;;;;;7.07;3.33;;;5.20;99.90;;;;;;5107844;28;20255;-71
2023/01/31 11:42:25;;;;;;;11.07;3.27;;;5.30;99.90;;;;;;5107903;28;20279;-71
2023/01/31 11:44:57;;;;;;;6.67;2.87;;;5.30;99.90;;;;;;5107328;28;20259;-71
2023/01/31 11:47:32;;;;;;;9.93;3.23;;;5.30;99.90;;;;;;5134992;27;20213;-71
2023/01/31 11:50:00;;;;;;;8.93;3.03;;;5.30;99.90;;;;;;5112165;28;20224;-71
2023/01/31 11:52:31;;;;;;;12.40;3.17;;;5.30;99.90;;;;;;5112180;28;20238;-71
2023/01/31 11:55:02;;;;;;;7.70;3.50;;;5.30;99.90;;;;;;5112326;28;20273;-71
2023/01/31 11:57:33;;;;;;;10.67;3.97;;;5.30;99.90;;;;;;5111446;28;20245;-72
2023/01/31 12:00:03;;;;;;;7.40;3.57;;;5.30;99.90;;;;;;5111966;28;20244;-72
2023/01/31 12:02:36;;;;;;;9.33;3.10;;;5.30;99.90;;;;;;5111943;28;20245;-71
2023/01/31 12:05:10;;;;;;;10.83;3.40;;;5.30;99.90;;;;;;5111901;28;20219;-71
2023/01/31 12:07:46;;;;;;;13.13;3.67;;;5.30;99.90;;;;;;5111609;28;20241;-71
2023/01/31 12:10:33;;;;;;;11.67;3.10;;;5.20;99.90;;;;;;5112072;28;20301;-71
2023/01/31 12:13:02;;;;;;;7.27;3.70;;;5.20;99.90;;;;;;5111539;28;20640;-71
2023/01/31 12:15:30;;;;;;;4.97;3.00;;;5.10;99.90;;;;;;5111835;28;20238;-71
2023/01/31 12:18:00;;;;;;;7.30;3.17;;;5.10;99.90;;;;;;5147430;27;20308;-71
2023/01/31 12:20:38;;;;;;;10.20;3.70;;;5.10;99.90;;;;;;5124945;27;20214;-72
2023/01/31 12:23:18;;;;;;;10.33;3.50;;;5.00;99.90;;;;;;5125716;27;20211;-72
2023/01/31 12:25:56;;;;;;;8.27;2.97;;;4.90;99.90;;;;;;5132193;27;20218;-72
2023/01/31 12:28:35;;;;;;;12.00;3.43;;;4.90;99.90;;;;;;5132025;27;20320;-72
2023/01/31 12:31:25;;;;;;;9.13;3.50;;;4.90;99.90;;;;;;5132053;27;20304;-72
2023/01/31 12:34:06;;;;;;;11.20;3.63;;;4.90;99.90;;;;;;5131924;27;20269;-72
2023/01/31 12:36:42;;;;;;;9.67;3.77;;;4.80;99.90;;;;;;5131580;27;20288;-72
2023/01/31 12:39:27;;;;;;;8.60;3.70;;;4.80;99.90;;;;;;5131770;27;20700;-72
2023/01/31 12:42:07;;;;;;;11.07;3.77;;;4.80;99.90;;;;;;5131862;27;20186;-72
2023/01/31 12:44:45;;;;;;;9.40;3.30;;;4.80;99.90;;;;;;5131350;27;20284;-71
2023/01/31 12:47:37;;;;;;;10.50;4.07;;;4.70;99.90;;;;;;5131849;27;20197;-72
2023/01/31 12:50:22;;;;;;;6.53;3.97;;;4.70;99.90;;;;;;5131854;27;20213;-72
2023/01/31 12:53:07;;;;;;;6.63;3.33;;;4.60;99.90;;;;;;5131328;27;20656;-72
2023/01/31 12:55:43;;;;;;;7.33;3.73;;;4.60;99.90;;;;;;5131177;27;20308;-71
2023/01/31 12:58:28;;;;;;;11.63;4.20;;;4.50;99.90;;;;;;5131225;27;20320;-70
2023/01/31 13:01:01;;;;;;;13.57;4.50;;;4.50;99.90;;;;;;5131339;27;20281;-70
2023/01/31 13:03:43;;;;;;;9.83;5.00;;;4.50;99.90;;;;;;5131394;27;20197;-70
2023/01/31 13:06:14;;;;;;;9.47;4.70;;;4.50;99.90;;;;;;5131412;27;20656;-70
2023/01/31 13:08:43;;;;;;;11.27;4.67;;;4.50;99.90;;;;;;5131467;27;20200;-70
2023/01/31 13:11:15;;;;;;;11.10;4.63;;;4.50;99.90;;;;;;5131272;27;20256;-70
2023/01/31 13:13:47;;;;;;;10.50;4.80;;;4.50;99.90;;;;;;5130530;27;20630;-70
2023/01/31 13:16:20;;;;;;;16.40;5.80;;;4.50;99.90;;;;;;5136568;27;20318;-71
2023/01/31 13:18:51;;;;;;;10.83;5.70;;;4.50;99.90;;;;;;5128207;27;20300;-70
2023/01/31 13:21:21;;;;;;;12.03;5.87;;;4.50;99.90;;;;;;5130745;27;20301;-71